Shonan Maru — JD2362 — position and weather

sailwx.info

Track history (hours):
 
Tides and Currents Weather Stations Pressure Air Temp Water Temp Dewpoint Dewpoint Depression Visibility Wind Speed Wind Dir Waves Ship Positions

Shonan Maru

Last reported at 2017-Oct-19 22:00 UTC. Time now 2017-Oct-19 22:08 UTC.
Position N 35°21' E 139°49'.

Length 38 m; draft 3 m.

Type: Tug. MMSI: 431000124.

Date/timePositionNaut miles runAvg speedWind from/ knotsBaromVisibWave heightAir tempDewpointWater temp
2017-Oct-19 22:00N 35°21' E 139°49'3 6.1
2017-Oct-19 21:30N 35°24' E 139°47'4 8.8
2017-Oct-19 21:01N 35°20' E 139°45'611.6
2017-Oct-19 20:31N 35°15' E 139°47'611.6
2017-Oct-19 20:00N 35°09' E 139°47'4 8.8
2017-Oct-19 19:30N 35°13' E 139°44'1 2.2
2017-Oct-19 18:56N 35°13' E 139°43'0 0.0
2017-Oct-19 18:30N 35°13' E 139°43'0 0.0
2017-Oct-19 17:51N 35°13' E 139°43'0 0.0
2017-Oct-19 17:30N 35°13' E 139°43'0 0.0
2017-Oct-19 16:56N 35°13' E 139°43'0 0.0
2017-Oct-19 16:30N 35°13' E 139°43'0 0.0
2017-Oct-19 16:00N 35°13' E 139°43'0 0.0
2017-Oct-19 15:29N 35°13' E 139°43'0 0.0
2017-Oct-19 15:01N 35°13' E 139°43'0 0.0
2017-Oct-19 14:28N 35°13' E 139°43'0 0.0
2017-Oct-19 14:00N 35°13' E 139°43'0 0.0
2017-Oct-19 13:30N 35°13' E 139°43'0 0.0
2017-Oct-19 12:59N 35°13' E 139°43'0 0.0
2017-Oct-19 12:28N 35°13' E 139°43'0 0.0
2017-Oct-19 12:00N 35°13' E 139°43'0 0.0
2017-Oct-19 11:29N 35°13' E 139°43'0 0.0
2017-Oct-19 10:58N 35°13' E 139°43'0 0.0
2017-Oct-19 10:30N 35°13' E 139°43'0 0.0
2017-Oct-19 09:56N 35°13' E 139°43'0 0.0
2017-Oct-19 09:30N 35°13' E 139°43'0 0.0
2017-Oct-19 08:56N 35°13' E 139°43'0 0.0
2017-Oct-19 08:30N 35°13' E 139°43'0 0.0
2017-Oct-19 08:00N 35°13' E 139°43'0 0.0
2017-Oct-19 07:29N 35°13' E 139°43'0 0.0
2017-Oct-19 06:49N 35°13' E 139°43'0 0.0
2017-Oct-19 06:30N 35°13' E 139°43'0 0.0
2017-Oct-19 05:42N 35°13' E 139°43'0 0.0
2017-Oct-19 05:20N 35°13' E 139°43'1 2.5
2017-Oct-19 05:00N 35°13' E 139°44'4 8.1
2017-Oct-19 04:30N 35°17' E 139°44'4 9.0
2017-Oct-19 04:00N 35°22' E 139°42'5 9.3
2017-Oct-19 03:31N 35°22' E 139°48'1 2.9
2017-Oct-19 03:00N 35°22' E 139°49'1 2.7
2017-Oct-19 02:30N 35°23' E 139°48'4 8.5
2017-Oct-19 02:01N 35°20' E 139°44'4 7.8
2017-Oct-19 01:30N 35°16' E 139°45'3 5.7
2017-Oct-19 00:59N 35°13' E 139°43'0 0.0
2017-Oct-19 00:29N 35°13' E 139°43'0 0.0
2017-Oct-18 23:59N 35°13' E 139°43'0 0.0
2017-Oct-18 23:30N 35°13' E 139°43'0 0.0
2017-Oct-18 23:00N 35°13' E 139°43'0 0.0
2017-Oct-18 22:30N 35°13' E 139°43'0 0.0
2017-Oct-18 22:00N 35°13' E 139°43'0 0.0
2017-Oct-18 21:29N 35°13' E 139°43'0 0.0
2017-Oct-18 21:00N 35°13' E 139°43'0 0.0
2017-Oct-18 20:30N 35°13' E 139°43'0 0.0
2017-Oct-18 20:00N 35°13' E 139°43'0 0.0
2017-Oct-18 19:29N 35°13' E 139°43'0 0.0
2017-Oct-18 18:59N 35°13' E 139°43'0 0.0
2017-Oct-18 18:30N 35°13' E 139°43'0 0.0
2017-Oct-18 17:59N 35°13' E 139°43'0 0.0
2017-Oct-18 17:27N 35°13' E 139°43'0 0.0
2017-Oct-18 17:00N 35°13' E 139°43'0 0.0
2017-Oct-18 16:30N 35°13' E 139°43'0 0.0
2017-Oct-18 16:00N 35°13' E 139°43'0 0.0
2017-Oct-18 15:30N 35°13' E 139°43'0 0.0
2017-Oct-18 15:00N 35°13' E 139°43'0 0.0
2017-Oct-18 14:00N 35°13' E 139°43'0 0.0
2017-Oct-18 13:30N 35°13' E 139°43'0 0.0
2017-Oct-18 13:00N 35°13' E 139°43'0 0.0
2017-Oct-18 12:30N 35°13' E 139°43'0 0.0
2017-Oct-18 12:00N 35°13' E 139°43'0 0.0
2017-Oct-18 11:28N 35°13' E 139°43'0 0.0
2017-Oct-18 11:00N 35°13' E 139°43'0 0.0
2017-Oct-18 10:30N 35°13' E 139°43'0 0.0
2017-Oct-18 10:00N 35°13' E 139°43'0 0.0
2017-Oct-18 09:30N 35°13' E 139°43'0 0.0
2017-Oct-18 09:00N 35°13' E 139°43'0 0.0
2017-Oct-18 08:30N 35°13' E 139°43'0 0.0
2017-Oct-18 08:00N 35°13' E 139°43'0 0.0
2017-Oct-18 07:30N 35°13' E 139°43'0 0.0
2017-Oct-18 06:56N 35°13' E 139°43'0 0.0
2017-Oct-18 06:29N 35°13' E 139°43'0 0.0
2017-Oct-18 06:00N 35°13' E 139°43'0 0.0
2017-Oct-18 05:24N 35°13' E 139°43'0 0.0
2017-Oct-18 04:59N 35°13' E 139°43'0 0.0
2017-Oct-18 04:30N 35°13' E 139°43'0 0.0
2017-Oct-18 03:36N 35°13' E 139°43'0 0.0
2017-Oct-18 03:25N 35°13' E 139°43'0 0.0
2017-Oct-18 02:36N 35°13' E 139°43'1 6.7
2017-Oct-18 02:30N 35°13' E 139°44'4 8.3
2017-Oct-18 02:00N 35°17' E 139°43'5 9.8
2017-Oct-18 01:31N 35°22' E 139°41'3 5.1
2017-Oct-18 01:00N 35°20' E 139°43'612.8
2017-Oct-18 00:30N 35°14' E 139°47'5 9.5
2017-Oct-18 00:00N 35°09' E 139°46'3 6.7
2017-Oct-17 23:30N 35°12' E 139°45'2 3.2
2017-Oct-17 23:00N 35°13' E 139°43'0 0.0
2017-Oct-17 22:30N 35°13' E 139°43'0 0.0
2017-Oct-17 22:00N 35°13' E 139°43'0 0.2
2017-Oct-17 21:27N 35°13' E 139°43'0 0.0
2017-Oct-17 21:00N 35°13' E 139°43'0 0.0
2017-Oct-17 20:30N 35°13' E 139°43'0 0.0
2017-Oct-17 20:00N 35°13' E 139°43'0 0.0
2017-Oct-17 19:30N 35°13' E 139°43'0 0.0
2017-Oct-17 19:00N 35°13' E 139°43'0 0.0
2017-Oct-17 18:29N 35°13' E 139°43'0 0.0
2017-Oct-17 18:00N 35°13' E 139°43'0 0.0
2017-Oct-17 17:30N 35°13' E 139°43'0 0.0
2017-Oct-17 17:00N 35°13' E 139°43'0 0.0
2017-Oct-17 16:30N 35°13' E 139°43'0 0.0
2017-Oct-17 16:00N 35°13' E 139°43'0 0.0
2017-Oct-17 15:30N 35°13' E 139°43'0 0.0
2017-Oct-17 15:00N 35°13' E 139°43'0 0.0
2017-Oct-17 14:30N 35°13' E 139°43'0 0.0
2017-Oct-17 14:00N 35°13' E 139°43'0 0.0
2017-Oct-17 13:30N 35°13' E 139°43'0 0.0
2017-Oct-17 13:00N 35°13' E 139°43'0 0.0
2017-Oct-17 12:30N 35°13' E 139°43'0 0.0
2017-Oct-17 11:58N 35°13' E 139°43'0 0.0
2017-Oct-17 11:30N 35°13' E 139°43'1 2.1
2017-Oct-17 11:00N 35°13' E 139°44'2 4.3
2017-Oct-17 10:30N 35°14' E 139°46'713.1
2017-Oct-17 10:01N 35°20' E 139°42'713.8
2017-Oct-17 09:30N 35°27' E 139°43'1 1.3
2017-Oct-17 09:00N 35°27' E 139°42'0 0.3
2017-Oct-17 08:30N 35°27' E 139°43'2 3.2
2017-Oct-17 08:00N 35°26' E 139°44'4 8.5
2017-Oct-17 07:30N 35°22' E 139°45'611.5
2017-Oct-17 07:00N 35°16' E 139°46'611.2
2017-Oct-17 06:30N 35°11' E 139°47'1 2.3
2017-Oct-17 06:00N 35°12' E 139°46'611.2
2017-Oct-17 05:30N 35°17' E 139°44'4 8.9
2017-Oct-17 05:00N 35°21' E 139°43'1 1.1
2017-Oct-17 04:30N 35°22' E 139°44'0 0.0
2017-Oct-17 04:00N 35°22' E 139°44'0 0.0
2017-Oct-17 03:30N 35°22' E 139°44'0 0.6
2017-Oct-17 03:00N 35°22' E 139°44'612.0
2017-Oct-17 02:30N 35°26' E 139°50'4 7.0
2017-Oct-17 01:55N 35°29' E 139°53'4 8.5
2017-Oct-17 01:30N 35°27' E 139°49'511.2
2017-Oct-17 01:00N 35°22' E 139°45'5 9.7
2017-Oct-17 00:30N 35°17' E 139°45'5 9.6
2017-Oct-17 00:00N 35°13' E 139°47'3 6.2
2017-Oct-16 23:30N 35°10' E 139°47'1 1.0
2017-Oct-16 23:00N 35°10' E 139°47'510.7
2017-Oct-16 22:30N 35°15' E 139°46'510.5
2017-Oct-16 22:00N 35°20' E 139°42'1 2.2
2017-Oct-16 21:30N 35°20' E 139°43'612.5
2017-Oct-16 21:00N 35°14' E 139°47'510.5
2017-Oct-16 20:30N 35°09' E 139°46'4 7.2
2017-Oct-16 20:00N 35°13' E 139°45'2 3.8
2017-Oct-16 19:28N 35°13' E 139°43'0 0.0
2017-Oct-16 18:47N 35°13' E 139°43'0 0.0
2017-Oct-16 18:15N 35°13' E 139°43'0 0.0
2017-Oct-16 17:51N 35°13' E 139°43'0 0.0
2017-Oct-16 17:27N 35°13' E 139°43'0 0.0
2017-Oct-16 17:00N 35°13' E 139°43'0 0.0
2017-Oct-16 16:26N 35°13' E 139°43'0 0.0
2017-Oct-16 16:00N 35°13' E 139°43'0 0.0
2017-Oct-16 14:40N 35°13' E 139°43'0 0.0
2017-Oct-16 14:25N 35°13' E 139°43'0 0.0
2017-Oct-16 13:30N 35°13' E 139°43'0 0.0
2017-Oct-16 13:00N 35°13' E 139°43'0 0.0
2017-Oct-16 12:30N 35°13' E 139°43'0 0.0
2017-Oct-16 12:00N 35°13' E 139°43'0 0.0
2017-Oct-16 11:30N 35°13' E 139°43'0 0.0
2017-Oct-16 11:00N 35°13' E 139°43'0 0.0
2017-Oct-16 10:30N 35°13' E 139°43'0 0.0
2017-Oct-16 10:00N 35°13' E 139°43'0 0.0
2017-Oct-16 09:29N 35°13' E 139°43'0 0.0
2017-Oct-16 08:59N 35°13' E 139°43'0 0.0
2017-Oct-16 08:30N 35°13' E 139°43'0 0.0
2017-Oct-16 07:59N 35°13' E 139°43'0 0.0
2017-Oct-16 07:30N 35°13' E 139°43'0 0.0
2017-Oct-16 06:52N 35°13' E 139°43'0 0.0
2017-Oct-16 06:30N 35°13' E 139°43'0 0.0
2017-Oct-16 05:54N 35°13' E 139°43'3 6.8
2017-Oct-16 05:31N 35°12' E 139°46'4 7.6
2017-Oct-16 05:00N 35°16' E 139°45'612.1
2017-Oct-16 04:30N 35°22' E 139°42'510.9
2017-Oct-16 04:01N 35°25' E 139°47'510.4
2017-Oct-16 03:31N 35°20' E 139°49'0 0.7
2017-Oct-16 03:01N 35°20' E 139°49'1 1.3
2017-Oct-16 02:30N 35°20' E 139°50'1 2.4
2017-Oct-16 02:00N 35°21' E 139°49'5 9.9
2017-Oct-16 01:30N 35°25' E 139°52'4 6.7
2017-Oct-16 00:54N 35°29' E 139°54'3 6.5
2017-Oct-16 00:30N 35°28' E 139°51'611.7
2017-Oct-16 00:00N 35°24' E 139°46'611.6
2017-Oct-15 23:31N 35°18' E 139°45'611.4
2017-Oct-15 23:01N 35°12' E 139°47'2 3.4
2017-Oct-15 22:30N 35°11' E 139°46'4 7.0
2017-Oct-15 22:00N 35°13' E 139°43'0 0.0
2017-Oct-15 09:36N 35°13' E 139°43'0 0.0
2017-Oct-15 09:28N 35°13' E 139°43'0 0.0
2017-Oct-15 08:55N 35°13' E 139°43'0 0.0
2017-Oct-15 03:02N 35°13' E 139°43'0 3.1
2017-Oct-15 03:01N 35°13' E 139°43'3 5.6
2017-Oct-15 02:30N 35°12' E 139°46'511.0
2017-Oct-15 02:00N 35°18' E 139°44'612.2
2017-Oct-15 01:30N 35°24' E 139°43'4 8.8
2017-Oct-15 01:01N 35°28' E 139°45'0 0.3
2017-Oct-15 00:30N 35°28' E 139°44'3 6.7
2017-Oct-15 00:00N 35°24' E 139°44'1 1.0
2017-Oct-14 23:30N 35°24' E 139°44'0 0.0
2017-Oct-14 23:00N 35°24' E 139°44'0 0.1
2017-Oct-14 22:30N 35°24' E 139°44'5 9.5
2017-Oct-14 22:00N 35°19' E 139°44'612.3
2017-Oct-14 21:30N 35°14' E 139°47'4 7.9
2017-Oct-14 21:00N 35°10' E 139°47'4 8.2
2017-Oct-14 20:30N 35°13' E 139°44'1 2.7
2017-Oct-14 20:00N 35°13' E 139°43'0 0.0
2017-Oct-14 19:30N 35°13' E 139°43'0 0.0
2017-Oct-14 18:58N 35°13' E 139°43'0 0.0
2017-Oct-14 18:07N 35°13' E 139°43'0 0.0
2017-Oct-14 18:00N 35°13' E 139°43'0 0.0
2017-Oct-14 17:30N 35°13' E 139°43'0 0.0
2017-Oct-14 16:59N 35°13' E 139°43'0 0.0
2017-Oct-14 16:30N 35°13' E 139°43'0 0.0
2017-Oct-14 16:00N 35°13' E 139°43'0 0.0
2017-Oct-14 15:30N 35°13' E 139°43'0 0.0
2017-Oct-14 14:59N 35°13' E 139°43'0 0.0
2017-Oct-14 14:30N 35°13' E 139°43'0 0.0
2017-Oct-14 13:59N 35°13' E 139°43'0 0.0
2017-Oct-14 13:30N 35°13' E 139°43'0 0.0
2017-Oct-14 12:56N 35°13' E 139°43'0 0.0
2017-Oct-14 12:26N 35°13' E 139°43'0 0.0
2017-Oct-14 11:56N 35°13' E 139°43'0 0.0
2017-Oct-14 11:23N 35°13' E 139°43'0 0.0
2017-Oct-14 11:00N 35°13' E 139°43'0 0.0
2017-Oct-14 10:30N 35°13' E 139°43'0 0.0
2017-Oct-14 10:00N 35°13' E 139°43'0 0.0
2017-Oct-14 09:30N 35°13' E 139°43'0 0.0
2017-Oct-14 09:00N 35°13' E 139°43'0 0.0
2017-Oct-14 08:30N 35°13' E 139°43'0 0.0
2017-Oct-14 08:00N 35°13' E 139°43'0 0.0
2017-Oct-14 07:30N 35°13' E 139°43'0 0.0
2017-Oct-14 06:55N 35°13' E 139°43'0 0.0
2017-Oct-14 06:27N 35°13' E 139°43'0 0.0
2017-Oct-14 05:48N 35°13' E 139°43'0 0.0
2017-Oct-14 05:30N 35°13' E 139°43'0 0.0
2017-Oct-14 04:54N 35°13' E 139°43'0 0.0
2017-Oct-14 04:26N 35°13' E 139°43'0 0.0
2017-Oct-14 03:56N 35°13' E 139°43'3 7.2
2017-Oct-14 03:31N 35°16' E 139°45'5 9.8
2017-Oct-14 03:00N 35°20' E 139°42'5 9.8
2017-Oct-14 02:31N 35°25' E 139°43'2 4.9
2017-Oct-14 02:01N 35°25' E 139°46'4 8.0
2017-Oct-14 01:30N 35°21' E 139°45'510.8
2017-Oct-14 01:00N 35°16' E 139°46'510.6
2017-Oct-14 00:30N 35°11' E 139°47'3 5.2
2017-Oct-13 23:59N 35°13' E 139°45'2 1.7
2017-Oct-13 23:05N 35°13' E 139°43'0 0.0
2017-Oct-13 06:49N 35°13' E 139°43'0 0.0
2017-Oct-13 06:30N 35°13' E 139°43'0 0.0
2017-Oct-13 05:49N 35°13' E 139°43'0 0.0
2017-Oct-13 05:08N 35°13' E 139°43'0 0.0
2017-Oct-13 05:00N 35°13' E 139°43'0 0.0
2017-Oct-13 04:30N 35°13' E 139°43'0 0.0
2017-Oct-13 03:36N 35°13' E 139°43'0 0.0
2017-Oct-12 23:23N 35°13' E 139°43'0 0.0
2017-Oct-12 23:00N 35°13' E 139°43'0 0.0
2017-Oct-12 22:30N 35°13' E 139°43'0 0.2
2017-Oct-12 22:00N 35°13' E 139°43'3 5.4
2017-Oct-12 21:30N 35°13' E 139°46'612.6
2017-Oct-12 21:00N 35°19' E 139°43'5 9.0
2017-Oct-12 20:30N 35°23' E 139°41'1 1.0
2017-Oct-12 20:00N 35°23' E 139°40'0 0.3
2017-Oct-12 19:30N 35°23' E 139°40'0 0.0
2017-Oct-12 19:01N 35°23' E 139°40'0 0.0
2017-Oct-12 18:30N 35°23' E 139°40'0 0.0
2017-Oct-12 18:00N 35°23' E 139°40'0 0.0
2017-Oct-12 17:30N 35°23' E 139°40'0 0.0
2017-Oct-12 17:00N 35°23' E 139°40'0 0.0
2017-Oct-12 16:31N 35°23' E 139°40'0 0.0
2017-Oct-12 16:00N 35°23' E 139°40'0 0.0
2017-Oct-12 15:30N 35°23' E 139°40'0 0.8
2017-Oct-12 15:00N 35°23' E 139°40'5 9.1
2017-Oct-12 14:30N 35°18' E 139°43'4 8.7
2017-Oct-12 14:00N 35°15' E 139°45'1 1.6
2017-Oct-12 13:30N 35°15' E 139°46'713.2
2017-Oct-12 13:00N 35°21' E 139°42'612.3
2017-Oct-12 12:30N 35°27' E 139°45'1 2.9
2017-Oct-12 12:00N 35°28' E 139°45'0 0.7
2017-Oct-12 11:30N 35°28' E 139°45'0 0.0
2017-Oct-12 11:00N 35°28' E 139°45'0 0.0
2017-Oct-12 10:30N 35°28' E 139°45'0 0.0
2017-Oct-12 10:00N 35°28' E 139°45'0 0.0
2017-Oct-12 09:30N 35°28' E 139°45'0 0.0
2017-Oct-12 09:00N 35°28' E 139°45'0 0.1
2017-Oct-12 08:30N 35°28' E 139°45'4 7.6
2017-Oct-12 08:01N 35°25' E 139°46'611.7
2017-Oct-12 07:30N 35°19' E 139°44'611.9
2017-Oct-12 07:00N 35°14' E 139°47'4 7.8
2017-Oct-12 06:30N 35°10' E 139°47'4 7.6
2017-Oct-12 06:00N 35°13' E 139°44'1 2.2
2017-Oct-12 05:27N 35°13' E 139°43'0 0.0
2017-Oct-12 05:00N 35°13' E 139°43'0 0.0
2017-Oct-12 02:28N 35°13' E 139°43'0 0.0
2017-Oct-12 01:57N 35°13' E 139°43'0 0.0
2017-Oct-11 22:07N 35°13' E 139°43'0 0.0
2017-Oct-11 22:00N 35°13' E 139°43'10 0.4
2017-Oct-10 23:56N 35°23' E 139°46'5 8.2
2017-Oct-10 23:22N 35°18' E 139°44'410.3
2017-Oct-10 23:00N 35°15' E 139°47'5 9.6
2017-Oct-10 22:30N 35°10' E 139°47'0 0.7
2017-Oct-10 22:00N 35°10' E 139°47'3 4.9
2017-Oct-10 21:30N 35°13' E 139°46'611.6
2017-Oct-10 21:00N 35°18' E 139°44'711.7
2017-Oct-10 20:27N 35°24' E 139°43'3 5.7
2017-Oct-10 19:57N 35°22' E 139°43'4 9.0
2017-Oct-10 19:30N 35°18' E 139°43'5 9.0
2017-Oct-10 19:00N 35°13' E 139°44'1 1.9
2017-Oct-10 18:30N 35°13' E 139°43'0 0.0
2017-Oct-10 18:00N 35°13' E 139°43'0 0.0
2017-Oct-10 17:30N 35°13' E 139°43'0 0.0
2017-Oct-10 17:00N 35°13' E 139°43'0 0.0
2017-Oct-10 16:30N 35°13' E 139°43'0 0.0
2017-Oct-10 16:00N 35°13' E 139°43'0 0.0
2017-Oct-10 15:30N 35°13' E 139°43'0 0.0
2017-Oct-10 15:00N 35°13' E 139°43'0 0.0
2017-Oct-10 14:00N 35°13' E 139°43'0 0.0
2017-Oct-10 13:30N 35°13' E 139°43'0 0.0
2017-Oct-10 13:00N 35°13' E 139°43'0 0.0
2017-Oct-10 12:30N 35°13' E 139°43'0 0.0
2017-Oct-10 12:00N 35°13' E 139°43'0 0.0
2017-Oct-10 11:30N 35°13' E 139°43'3 5.5
2017-Oct-10 11:00N 35°13' E 139°46'612.2
2017-Oct-10 10:30N 35°18' E 139°44'6 9.4
2017-Oct-10 09:55N 35°23' E 139°41'0 0.6
2017-Oct-10 09:27N 35°23' E 139°40'0 0.4
2017-Oct-10 09:00N 35°23' E 139°40'0 0.0
2017-Oct-10 08:30N 35°23' E 139°40'0 0.0
2017-Oct-10 07:29N 35°23' E 139°40'0 0.0
2017-Oct-10 07:00N 35°23' E 139°40'0 0.0
2017-Oct-10 06:30N 35°23' E 139°40'3 5.5
2017-Oct-10 06:00N 35°25' E 139°43'5 9.7
2017-Oct-10 05:30N 35°28' E 139°48'4 8.4
2017-Oct-10 04:59N 35°29' E 139°53'2 4.2
2017-Oct-10 04:30N 35°28' E 139°51'510.7
2017-Oct-10 04:00N 35°24' E 139°46'510.9
2017-Oct-10 03:30N 35°19' E 139°44'511.0
2017-Oct-10 03:00N 35°14' E 139°47'510.5
2017-Oct-10 02:30N 35°09' E 139°47'4 8.2
2017-Oct-10 02:00N 35°13' E 139°45'  
Track history (hours):
 
Tides and Currents Weather Stations Pressure Air Temp Water Temp Dewpoint Dewpoint Depression Visibility Wind Speed Wind Dir Waves Ship Positions

Shonan Maru

Last reported at 2017-Oct-19 22:00 UTC. Time now 2017-Oct-19 22:08 UTC.
Position N 35°21' E 139°49'.

Length 38 m; draft 3 m.

Type: Tug. MMSI: 431000124.

Date/timePositionNaut miles runAvg speedWind from/ knotsBaromVisibWave heightAir tempDewpointWater temp
2017-Oct-19 22:00N 35°21' E 139°49'3 6.1
2017-Oct-19 21:30N 35°24' E 139°47'4 8.8
2017-Oct-19 21:01N 35°20' E 139°45'611.6
2017-Oct-19 20:31N 35°15' E 139°47'611.6
2017-Oct-19 20:00N 35°09' E 139°47'4 8.8
2017-Oct-19 19:30N 35°13' E 139°44'1 2.2
2017-Oct-19 18:56N 35°13' E 139°43'0 0.0
2017-Oct-19 18:30N 35°13' E 139°43'0 0.0
2017-Oct-19 17:51N 35°13' E 139°43'0 0.0
2017-Oct-19 17:30N 35°13' E 139°43'0 0.0
2017-Oct-19 16:56N 35°13' E 139°43'0 0.0
2017-Oct-19 16:30N 35°13' E 139°43'0 0.0
2017-Oct-19 16:00N 35°13' E 139°43'0 0.0
2017-Oct-19 15:29N 35°13' E 139°43'0 0.0
2017-Oct-19 15:01N 35°13' E 139°43'0 0.0
2017-Oct-19 14:28N 35°13' E 139°43'0 0.0
2017-Oct-19 14:00N 35°13' E 139°43'0 0.0
2017-Oct-19 13:30N 35°13' E 139°43'0 0.0
2017-Oct-19 12:59N 35°13' E 139°43'0 0.0
2017-Oct-19 12:28N 35°13' E 139°43'0 0.0
2017-Oct-19 12:00N 35°13' E 139°43'0 0.0
2017-Oct-19 11:29N 35°13' E 139°43'0 0.0
2017-Oct-19 10:58N 35°13' E 139°43'0 0.0
2017-Oct-19 10:30N 35°13' E 139°43'0 0.0
2017-Oct-19 09:56N 35°13' E 139°43'0 0.0
2017-Oct-19 09:30N 35°13' E 139°43'0 0.0
2017-Oct-19 08:56N 35°13' E 139°43'0 0.0
2017-Oct-19 08:30N 35°13' E 139°43'0 0.0
2017-Oct-19 08:00N 35°13' E 139°43'0 0.0
2017-Oct-19 07:29N 35°13' E 139°43'0 0.0
2017-Oct-19 06:49N 35°13' E 139°43'0 0.0
2017-Oct-19 06:30N 35°13' E 139°43'0 0.0
2017-Oct-19 05:42N 35°13' E 139°43'0 0.0
2017-Oct-19 05:20N 35°13' E 139°43'1 2.5
2017-Oct-19 05:00N 35°13' E 139°44'4 8.1
2017-Oct-19 04:30N 35°17' E 139°44'4 9.0
2017-Oct-19 04:00N 35°22' E 139°42'5 9.3
2017-Oct-19 03:31N 35°22' E 139°48'1 2.9
2017-Oct-19 03:00N 35°22' E 139°49'1 2.7
2017-Oct-19 02:30N 35°23' E 139°48'4 8.5
2017-Oct-19 02:01N 35°20' E 139°44'4 7.8
2017-Oct-19 01:30N 35°16' E 139°45'3 5.7
2017-Oct-19 00:59N 35°13' E 139°43'0 0.0
2017-Oct-19 00:29N 35°13' E 139°43'0 0.0
2017-Oct-18 23:59N 35°13' E 139°43'0 0.0
2017-Oct-18 23:30N 35°13' E 139°43'0 0.0
2017-Oct-18 23:00N 35°13' E 139°43'0 0.0
2017-Oct-18 22:30N 35°13' E 139°43'0 0.0
2017-Oct-18 22:00N 35°13' E 139°43'0 0.0
2017-Oct-18 21:29N 35°13' E 139°43'0 0.0
2017-Oct-18 21:00N 35°13' E 139°43'0 0.0
2017-Oct-18 20:30N 35°13' E 139°43'0 0.0
2017-Oct-18 20:00N 35°13' E 139°43'0 0.0
2017-Oct-18 19:29N 35°13' E 139°43'0 0.0
2017-Oct-18 18:59N 35°13' E 139°43'0 0.0
2017-Oct-18 18:30N 35°13' E 139°43'0 0.0
2017-Oct-18 17:59N 35°13' E 139°43'0 0.0
2017-Oct-18 17:27N 35°13' E 139°43'0 0.0
2017-Oct-18 17:00N 35°13' E 139°43'0 0.0
2017-Oct-18 16:30N 35°13' E 139°43'0 0.0
2017-Oct-18 16:00N 35°13' E 139°43'0 0.0
2017-Oct-18 15:30N 35°13' E 139°43'0 0.0
2017-Oct-18 15:00N 35°13' E 139°43'0 0.0
2017-Oct-18 14:00N 35°13' E 139°43'0 0.0
2017-Oct-18 13:30N 35°13' E 139°43'0 0.0
2017-Oct-18 13:00N 35°13' E 139°43'0 0.0
2017-Oct-18 12:30N 35°13' E 139°43'0 0.0
2017-Oct-18 12:00N 35°13' E 139°43'0 0.0
2017-Oct-18 11:28N 35°13' E 139°43'0 0.0
2017-Oct-18 11:00N 35°13' E 139°43'0 0.0
2017-Oct-18 10:30N 35°13' E 139°43'0 0.0
2017-Oct-18 10:00N 35°13' E 139°43'0 0.0
2017-Oct-18 09:30N 35°13' E 139°43'0 0.0
2017-Oct-18 09:00N 35°13' E 139°43'0 0.0
2017-Oct-18 08:30N 35°13' E 139°43'0 0.0
2017-Oct-18 08:00N 35°13' E 139°43'0 0.0
2017-Oct-18 07:30N 35°13' E 139°43'0 0.0
2017-Oct-18 06:56N 35°13' E 139°43'0 0.0
2017-Oct-18 06:29N 35°13' E 139°43'0 0.0
2017-Oct-18 06:00N 35°13' E 139°43'0 0.0
2017-Oct-18 05:24N 35°13' E 139°43'0 0.0
2017-Oct-18 04:59N 35°13' E 139°43'0 0.0
2017-Oct-18 04:30N 35°13' E 139°43'0 0.0
2017-Oct-18 03:36N 35°13' E 139°43'0 0.0
2017-Oct-18 03:25N 35°13' E 139°43'0 0.0
2017-Oct-18 02:36N 35°13' E 139°43'1 6.7
2017-Oct-18 02:30N 35°13' E 139°44'4 8.3
2017-Oct-18 02:00N 35°17' E 139°43'5 9.8
2017-Oct-18 01:31N 35°22' E 139°41'3 5.1
2017-Oct-18 01:00N 35°20' E 139°43'612.8
2017-Oct-18 00:30N 35°14' E 139°47'5 9.5
2017-Oct-18 00:00N 35°09' E 139°46'3 6.7
2017-Oct-17 23:30N 35°12' E 139°45'2 3.2
2017-Oct-17 23:00N 35°13' E 139°43'0 0.0
2017-Oct-17 22:30N 35°13' E 139°43'0 0.0
2017-Oct-17 22:00N 35°13' E 139°43'0 0.2
2017-Oct-17 21:27N 35°13' E 139°43'0 0.0
2017-Oct-17 21:00N 35°13' E 139°43'0 0.0
2017-Oct-17 20:30N 35°13' E 139°43'0 0.0
2017-Oct-17 20:00N 35°13' E 139°43'0 0.0
2017-Oct-17 19:30N 35°13' E 139°43'0 0.0
2017-Oct-17 19:00N 35°13' E 139°43'0 0.0
2017-Oct-17 18:29N 35°13' E 139°43'0 0.0
2017-Oct-17 18:00N 35°13' E 139°43'0 0.0
2017-Oct-17 17:30N 35°13' E 139°43'0 0.0
2017-Oct-17 17:00N 35°13' E 139°43'0 0.0
2017-Oct-17 16:30N 35°13' E 139°43'0 0.0
2017-Oct-17 16:00N 35°13' E 139°43'0 0.0
2017-Oct-17 15:30N 35°13' E 139°43'0 0.0
2017-Oct-17 15:00N 35°13' E 139°43'0 0.0
2017-Oct-17 14:30N 35°13' E 139°43'0 0.0
2017-Oct-17 14:00N 35°13' E 139°43'0 0.0
2017-Oct-17 13:30N 35°13' E 139°43'0 0.0
2017-Oct-17 13:00N 35°13' E 139°43'0 0.0
2017-Oct-17 12:30N 35°13' E 139°43'0 0.0
2017-Oct-17 11:58N 35°13' E 139°43'0 0.0
2017-Oct-17 11:30N 35°13' E 139°43'1 2.1
2017-Oct-17 11:00N 35°13' E 139°44'2 4.3
2017-Oct-17 10:30N 35°14' E 139°46'713.1
2017-Oct-17 10:01N 35°20' E 139°42'713.8
2017-Oct-17 09:30N 35°27' E 139°43'1 1.3
2017-Oct-17 09:00N 35°27' E 139°42'0 0.3
2017-Oct-17 08:30N 35°27' E 139°43'2 3.2
2017-Oct-17 08:00N 35°26' E 139°44'4 8.5
2017-Oct-17 07:30N 35°22' E 139°45'611.5
2017-Oct-17 07:00N 35°16' E 139°46'611.2
2017-Oct-17 06:30N 35°11' E 139°47'1 2.3
2017-Oct-17 06:00N 35°12' E 139°46'611.2
2017-Oct-17 05:30N 35°17' E 139°44'4 8.9
2017-Oct-17 05:00N 35°21' E 139°43'1 1.1
2017-Oct-17 04:30N 35°22' E 139°44'0 0.0
2017-Oct-17 04:00N 35°22' E 139°44'0 0.0
2017-Oct-17 03:30N 35°22' E 139°44'0 0.6
2017-Oct-17 03:00N 35°22' E 139°44'612.0
2017-Oct-17 02:30N 35°26' E 139°50'4 7.0
2017-Oct-17 01:55N 35°29' E 139°53'4 8.5
2017-Oct-17 01:30N 35°27' E 139°49'511.2
2017-Oct-17 01:00N 35°22' E 139°45'5 9.7
2017-Oct-17 00:30N 35°17' E 139°45'5 9.6
2017-Oct-17 00:00N 35°13' E 139°47'3 6.2
2017-Oct-16 23:30N 35°10' E 139°47'1 1.0
2017-Oct-16 23:00N 35°10' E 139°47'510.7
2017-Oct-16 22:30N 35°15' E 139°46'510.5
2017-Oct-16 22:00N 35°20' E 139°42'1 2.2
2017-Oct-16 21:30N 35°20' E 139°43'612.5
2017-Oct-16 21:00N 35°14' E 139°47'510.5
2017-Oct-16 20:30N 35°09' E 139°46'4 7.2
2017-Oct-16 20:00N 35°13' E 139°45'2 3.8
2017-Oct-16 19:28N 35°13' E 139°43'0 0.0
2017-Oct-16 18:47N 35°13' E 139°43'0 0.0
2017-Oct-16 18:15N 35°13' E 139°43'0 0.0
2017-Oct-16 17:51N 35°13' E 139°43'0 0.0
2017-Oct-16 17:27N 35°13' E 139°43'0 0.0
2017-Oct-16 17:00N 35°13' E 139°43'0 0.0
2017-Oct-16 16:26N 35°13' E 139°43'0 0.0
2017-Oct-16 16:00N 35°13' E 139°43'0 0.0
2017-Oct-16 14:40N 35°13' E 139°43'0 0.0
2017-Oct-16 14:25N 35°13' E 139°43'0 0.0
2017-Oct-16 13:30N 35°13' E 139°43'0 0.0
2017-Oct-16 13:00N 35°13' E 139°43'0 0.0
2017-Oct-16 12:30N 35°13' E 139°43'0 0.0
2017-Oct-16 12:00N 35°13' E 139°43'0 0.0
2017-Oct-16 11:30N 35°13' E 139°43'0 0.0
2017-Oct-16 11:00N 35°13' E 139°43'0 0.0
2017-Oct-16 10:30N 35°13' E 139°43'0 0.0
2017-Oct-16 10:00N 35°13' E 139°43'0 0.0
2017-Oct-16 09:29N 35°13' E 139°43'0 0.0
2017-Oct-16 08:59N 35°13' E 139°43'0 0.0
2017-Oct-16 08:30N 35°13' E 139°43'0 0.0
2017-Oct-16 07:59N 35°13' E 139°43'0 0.0
2017-Oct-16 07:30N 35°13' E 139°43'0 0.0
2017-Oct-16 06:52N 35°13' E 139°43'0 0.0
2017-Oct-16 06:30N 35°13' E 139°43'0 0.0
2017-Oct-16 05:54N 35°13' E 139°43'3 6.8
2017-Oct-16 05:31N 35°12' E 139°46'4 7.6
2017-Oct-16 05:00N 35°16' E 139°45'612.1
2017-Oct-16 04:30N 35°22' E 139°42'510.9
2017-Oct-16 04:01N 35°25' E 139°47'510.4
2017-Oct-16 03:31N 35°20' E 139°49'0 0.7
2017-Oct-16 03:01N 35°20' E 139°49'1 1.3
2017-Oct-16 02:30N 35°20' E 139°50'1 2.4
2017-Oct-16 02:00N 35°21' E 139°49'5 9.9
2017-Oct-16 01:30N 35°25' E 139°52'4 6.7
2017-Oct-16 00:54N 35°29' E 139°54'3 6.5
2017-Oct-16 00:30N 35°28' E 139°51'611.7
2017-Oct-16 00:00N 35°24' E 139°46'611.6
2017-Oct-15 23:31N 35°18' E 139°45'611.4
2017-Oct-15 23:01N 35°12' E 139°47'2 3.4
2017-Oct-15 22:30N 35°11' E 139°46'4 7.0
2017-Oct-15 22:00N 35°13' E 139°43'0 0.0
2017-Oct-15 09:36N 35°13' E 139°43'0 0.0
2017-Oct-15 09:28N 35°13' E 139°43'0 0.0
2017-Oct-15 08:55N 35°13' E 139°43'0 0.0
2017-Oct-15 03:02N 35°13' E 139°43'0 3.1
2017-Oct-15 03:01N 35°13' E 139°43'3 5.6
2017-Oct-15 02:30N 35°12' E 139°46'511.0
2017-Oct-15 02:00N 35°18' E 139°44'612.2
2017-Oct-15 01:30N 35°24' E 139°43'4 8.8
2017-Oct-15 01:01N 35°28' E 139°45'0 0.3
2017-Oct-15 00:30N 35°28' E 139°44'3 6.7
2017-Oct-15 00:00N 35°24' E 139°44'1 1.0
2017-Oct-14 23:30N 35°24' E 139°44'0 0.0
2017-Oct-14 23:00N 35°24' E 139°44'0 0.1
2017-Oct-14 22:30N 35°24' E 139°44'5 9.5
2017-Oct-14 22:00N 35°19' E 139°44'612.3
2017-Oct-14 21:30N 35°14' E 139°47'4 7.9
2017-Oct-14 21:00N 35°10' E 139°47'4 8.2
2017-Oct-14 20:30N 35°13' E 139°44'1 2.7
2017-Oct-14 20:00N 35°13' E 139°43'0 0.0
2017-Oct-14 19:30N 35°13' E 139°43'0 0.0
2017-Oct-14 18:58N 35°13' E 139°43'0 0.0
2017-Oct-14 18:07N 35°13' E 139°43'0 0.0
2017-Oct-14 18:00N 35°13' E 139°43'0 0.0
2017-Oct-14 17:30N 35°13' E 139°43'0 0.0
2017-Oct-14 16:59N 35°13' E 139°43'0 0.0
2017-Oct-14 16:30N 35°13' E 139°43'0 0.0
2017-Oct-14 16:00N 35°13' E 139°43'0 0.0
2017-Oct-14 15:30N 35°13' E 139°43'0 0.0
2017-Oct-14 14:59N 35°13' E 139°43'0 0.0
2017-Oct-14 14:30N 35°13' E 139°43'0 0.0
2017-Oct-14 13:59N 35°13' E 139°43'0 0.0
2017-Oct-14 13:30N 35°13' E 139°43'0 0.0
2017-Oct-14 12:56N 35°13' E 139°43'0 0.0
2017-Oct-14 12:26N 35°13' E 139°43'0 0.0
2017-Oct-14 11:56N 35°13' E 139°43'0 0.0
2017-Oct-14 11:23N 35°13' E 139°43'0 0.0
2017-Oct-14 11:00N 35°13' E 139°43'0 0.0
2017-Oct-14 10:30N 35°13' E 139°43'0 0.0
2017-Oct-14 10:00N 35°13' E 139°43'0 0.0
2017-Oct-14 09:30N 35°13' E 139°43'0 0.0
2017-Oct-14 09:00N 35°13' E 139°43'0 0.0
2017-Oct-14 08:30N 35°13' E 139°43'0 0.0
2017-Oct-14 08:00N 35°13' E 139°43'0 0.0
2017-Oct-14 07:30N 35°13' E 139°43'0 0.0
2017-Oct-14 06:55N 35°13' E 139°43'0 0.0
2017-Oct-14 06:27N 35°13' E 139°43'0 0.0
2017-Oct-14 05:48N 35°13' E 139°43'0 0.0
2017-Oct-14 05:30N 35°13' E 139°43'0 0.0
2017-Oct-14 04:54N 35°13' E 139°43'0 0.0
2017-Oct-14 04:26N 35°13' E 139°43'0 0.0
2017-Oct-14 03:56N 35°13' E 139°43'3 7.2
2017-Oct-14 03:31N 35°16' E 139°45'5 9.8
2017-Oct-14 03:00N 35°20' E 139°42'5 9.8
2017-Oct-14 02:31N 35°25' E 139°43'2 4.9
2017-Oct-14 02:01N 35°25' E 139°46'4 8.0
2017-Oct-14 01:30N 35°21' E 139°45'510.8
2017-Oct-14 01:00N 35°16' E 139°46'510.6
2017-Oct-14 00:30N 35°11' E 139°47'3 5.2
2017-Oct-13 23:59N 35°13' E 139°45'2 1.7
2017-Oct-13 23:05N 35°13' E 139°43'0 0.0
2017-Oct-13 06:49N 35°13' E 139°43'0 0.0
2017-Oct-13 06:30N 35°13' E 139°43'0 0.0
2017-Oct-13 05:49N 35°13' E 139°43'0 0.0
2017-Oct-13 05:08N 35°13' E 139°43'0 0.0
2017-Oct-13 05:00N 35°13' E 139°43'0 0.0
2017-Oct-13 04:30N 35°13' E 139°43'0 0.0
2017-Oct-13 03:36N 35°13' E 139°43'0 0.0
2017-Oct-12 23:23N 35°13' E 139°43'0 0.0
2017-Oct-12 23:00N 35°13' E 139°43'0 0.0
2017-Oct-12 22:30N 35°13' E 139°43'0 0.2
2017-Oct-12 22:00N 35°13' E 139°43'3 5.4
2017-Oct-12 21:30N 35°13' E 139°46'612.6
2017-Oct-12 21:00N 35°19' E 139°43'5 9.0
2017-Oct-12 20:30N 35°23' E 139°41'1 1.0
2017-Oct-12 20:00N 35°23' E 139°40'0 0.3
2017-Oct-12 19:30N 35°23' E 139°40'0 0.0
2017-Oct-12 19:01N 35°23' E 139°40'0 0.0
2017-Oct-12 18:30N 35°23' E 139°40'0 0.0
2017-Oct-12 18:00N 35°23' E 139°40'0 0.0
2017-Oct-12 17:30N 35°23' E 139°40'0 0.0
2017-Oct-12 17:00N 35°23' E 139°40'0 0.0
2017-Oct-12 16:31N 35°23' E 139°40'0 0.0
2017-Oct-12 16:00N 35°23' E 139°40'0 0.0
2017-Oct-12 15:30N 35°23' E 139°40'0 0.8
2017-Oct-12 15:00N 35°23' E 139°40'5 9.1
2017-Oct-12 14:30N 35°18' E 139°43'4 8.7
2017-Oct-12 14:00N 35°15' E 139°45'1 1.6
2017-Oct-12 13:30N 35°15' E 139°46'713.2
2017-Oct-12 13:00N 35°21' E 139°42'612.3
2017-Oct-12 12:30N 35°27' E 139°45'1 2.9
2017-Oct-12 12:00N 35°28' E 139°45'0 0.7
2017-Oct-12 11:30N 35°28' E 139°45'0 0.0
2017-Oct-12 11:00N 35°28' E 139°45'0 0.0
2017-Oct-12 10:30N 35°28' E 139°45'0 0.0
2017-Oct-12 10:00N 35°28' E 139°45'0 0.0
2017-Oct-12 09:30N 35°28' E 139°45'0 0.0
2017-Oct-12 09:00N 35°28' E 139°45'0 0.1
2017-Oct-12 08:30N 35°28' E 139°45'4 7.6
2017-Oct-12 08:01N 35°25' E 139°46'611.7
2017-Oct-12 07:30N 35°19' E 139°44'611.9
2017-Oct-12 07:00N 35°14' E 139°47'4 7.8
2017-Oct-12 06:30N 35°10' E 139°47'4 7.6
2017-Oct-12 06:00N 35°13' E 139°44'1 2.2
2017-Oct-12 05:27N 35°13' E 139°43'0 0.0
2017-Oct-12 05:00N 35°13' E 139°43'0 0.0
2017-Oct-12 02:28N 35°13' E 139°43'0 0.0
2017-Oct-12 01:57N 35°13' E 139°43'0 0.0
2017-Oct-11 22:07N 35°13' E 139°43'0 0.0
2017-Oct-11 22:00N 35°13' E 139°43'10 0.4
2017-Oct-10 23:56N 35°23' E 139°46'5 8.2
2017-Oct-10 23:22N 35°18' E 139°44'410.3
2017-Oct-10 23:00N 35°15' E 139°47'5 9.6
2017-Oct-10 22:30N 35°10' E 139°47'0 0.7
2017-Oct-10 22:00N 35°10' E 139°47'3 4.9
2017-Oct-10 21:30N 35°13' E 139°46'611.6
2017-Oct-10 21:00N 35°18' E 139°44'711.7
2017-Oct-10 20:27N 35°24' E 139°43'3 5.7
2017-Oct-10 19:57N 35°22' E 139°43'4 9.0
2017-Oct-10 19:30N 35°18' E 139°43'5 9.0
2017-Oct-10 19:00N 35°13' E 139°44'1 1.9
2017-Oct-10 18:30N 35°13' E 139°43'0 0.0
2017-Oct-10 18:00N 35°13' E 139°43'0 0.0
2017-Oct-10 17:30N 35°13' E 139°43'0 0.0
2017-Oct-10 17:00N 35°13' E 139°43'0 0.0
2017-Oct-10 16:30N 35°13' E 139°43'0 0.0
2017-Oct-10 16:00N 35°13' E 139°43'0 0.0
2017-Oct-10 15:30N 35°13' E 139°43'0 0.0
2017-Oct-10 15:00N 35°13' E 139°43'0 0.0
2017-Oct-10 14:00N 35°13' E 139°43'0 0.0
2017-Oct-10 13:30N 35°13' E 139°43'0 0.0
2017-Oct-10 13:00N 35°13' E 139°43'0 0.0
2017-Oct-10 12:30N 35°13' E 139°43'0 0.0
2017-Oct-10 12:00N 35°13' E 139°43'0 0.0
2017-Oct-10 11:30N 35°13' E 139°43'3 5.5
2017-Oct-10 11:00N 35°13' E 139°46'612.2
2017-Oct-10 10:30N 35°18' E 139°44'6 9.4
2017-Oct-10 09:55N 35°23' E 139°41'0 0.6
2017-Oct-10 09:27N 35°23' E 139°40'0 0.4
2017-Oct-10 09:00N 35°23' E 139°40'0 0.0
2017-Oct-10 08:30N 35°23' E 139°40'0 0.0
2017-Oct-10 07:29N 35°23' E 139°40'0 0.0
2017-Oct-10 07:00N 35°23' E 139°40'0 0.0
2017-Oct-10 06:30N 35°23' E 139°40'3 5.5
2017-Oct-10 06:00N 35°25' E 139°43'5 9.7
2017-Oct-10 05:30N 35°28' E 139°48'4 8.4
2017-Oct-10 04:59N 35°29' E 139°53'2 4.2
2017-Oct-10 04:30N 35°28' E 139°51'510.7
2017-Oct-10 04:00N 35°24' E 139°46'510.9
2017-Oct-10 03:30N 35°19' E 139°44'511.0
2017-Oct-10 03:00N 35°14' E 139°47'510.5
2017-Oct-10 02:30N 35°09' E 139°47'4 8.2
2017-Oct-10 02:00N 35°13' E 139°45'  

Dump ship's entire track history